createdAt,value
2022-08-29T00:01:52.994Z,4.63
2022-08-29T00:04:22.412Z,4.75
2022-08-29T00:06:51.912Z,4.47
2022-08-29T00:09:22.993Z,4.63
2022-08-29T00:11:52.539Z,4.38
2022-08-29T00:14:23.658Z,5.45
2022-08-29T00:16:53.527Z,5.60
2022-08-29T00:19:24.365Z,5.00
2022-08-29T00:21:54.417Z,5.75
2022-08-29T00:24:25.250Z,5.70
2022-08-29T00:26:54.947Z,5.53
2022-08-29T00:29:24.380Z,6.10
2022-08-29T00:31:53.940Z,6.45
2022-08-29T00:34:23.612Z,6.70
2022-08-29T00:36:53.602Z,6.82
2022-08-29T00:39:24.732Z,7.20
2022-08-29T00:41:56.276Z,6.70
2022-08-29T00:44:25.773Z,7.10
2022-08-29T00:46:58.845Z,6.18
2022-08-29T00:49:33.974Z,6.57
2022-08-29T00:52:08.688Z,5.93
2022-08-29T00:54:42.949Z,6.75
2022-08-29T00:57:13.937Z,5.97
2022-08-29T00:59:44.317Z,7.10
2022-08-29T01:02:13.731Z,5.70
2022-08-29T01:04:43.432Z,6.07
2022-08-29T01:07:14.272Z,6.25
2022-08-29T01:09:47.245Z,6.47
2022-08-29T01:12:16.360Z,5.53
2022-08-29T01:14:48.984Z,7.03
2022-08-29T01:17:23.770Z,6.13
2022-08-29T01:19:59.453Z,5.32
2022-08-29T01:22:49.358Z,7.10
2022-08-29T01:25:23.330Z,5.10
2022-08-29T01:28:01.077Z,6.38
2022-08-29T01:30:30.577Z,5.93
2022-08-29T01:33:01.235Z,6.13
2022-08-29T01:35:31.674Z,5.25
2022-08-29T01:38:03.764Z,7.25
2022-08-29T01:40:38.646Z,5.45
2022-08-29T01:43:08.949Z,6.25
2022-08-29T01:45:38.354Z,5.63
2022-08-29T01:48:07.714Z,6.10
2022-08-29T01:50:37.326Z,5.25
2022-08-29T01:53:06.668Z,5.35
2022-08-29T01:55:39.004Z,4.75
2022-08-29T01:58:09.401Z,5.65
2022-08-29T02:00:39.323Z,5.47
2022-08-29T02:03:08.872Z,5.97
2022-08-29T02:05:38.637Z,5.80
2022-08-29T02:08:08.334Z,5.20
2022-08-29T02:10:39.206Z,4.43
2022-08-29T02:13:09.153Z,4.93
2022-08-29T02:15:38.642Z,4.90
2022-08-29T02:18:08.109Z,4.50
2022-08-29T02:20:37.729Z,4.83
2022-08-29T02:23:21.878Z,4.43
2022-08-29T02:25:58.987Z,5.47
2022-08-29T02:28:28.375Z,5.45
2022-08-29T02:30:58.020Z,5.18
2022-08-29T02:33:29.015Z,4.45
2022-08-29T02:35:59.690Z,5.03
2022-08-29T02:38:30.912Z,5.43
2022-08-29T02:41:02.653Z,4.20
2022-08-29T02:43:32.026Z,5.10
2022-08-29T02:46:02.450Z,5.65
2022-08-29T02:48:31.982Z,5.30
2022-08-29T02:51:01.347Z,4.93
2022-08-29T02:53:32.770Z,5.57
2022-08-29T02:56:03.708Z,4.70
2022-08-29T02:58:34.507Z,5.07
2022-08-29T03:01:04.215Z,4.15
2022-08-29T03:03:35.567Z,5.47
2022-08-29T03:06:05.209Z,4.78
2022-08-29T03:08:35.196Z,4.40
2022-08-29T03:11:06.893Z,4.25
2022-08-29T03:13:37.341Z,5.32
2022-08-29T03:16:07.003Z,4.82
2022-08-29T03:18:36.368Z,4.40
2022-08-29T03:21:06.282Z,4.20
2022-08-29T03:23:35.734Z,4.80
2022-08-29T03:26:06.942Z,4.72
2022-08-29T03:28:37.232Z,4.93
2022-08-29T03:31:06.900Z,5.07
2022-08-29T03:33:36.347Z,4.93
2022-08-29T03:36:08.843Z,5.00
2022-08-29T03:38:46.823Z,5.05
2022-08-29T03:41:24.945Z,4.93
2022-08-29T03:43:55.525Z,4.03
2022-08-29T03:46:25.655Z,4.80
2022-08-29T03:48:55.596Z,4.57
2022-08-29T03:51:25.086Z,4.83
2022-08-29T03:54:00.489Z,4.43
2022-08-29T03:56:32.662Z,5.03
2022-08-29T03:59:02.815Z,4.97
2022-08-29T04:01:32.164Z,4.75
2022-08-29T04:04:01.705Z,5.43
2022-08-29T04:06:33.161Z,5.20
2022-08-29T04:09:03.153Z,4.85
2022-08-29T04:14:03.795Z,5.07
2022-08-29T04:16:33.918Z,4.50
2022-08-29T04:19:03.301Z,4.75
2022-08-29T04:21:33.384Z,4.32
2022-08-29T04:24:03.061Z,5.13
2022-08-29T04:26:37.744Z,5.00
2022-08-29T04:29:09.741Z,4.55
2022-08-29T04:34:11.341Z,5.70
2022-08-29T04:36:42.912Z,5.65
2022-08-29T04:39:13.361Z,5.10
2022-08-29T04:41:45.441Z,5.63
2022-08-29T04:44:15.474Z,4.93
2022-08-29T04:46:44.867Z,6.22
2022-08-29T04:49:14.477Z,6.32
2022-08-29T04:51:44.190Z,4.85
2022-08-29T04:54:13.660Z,6.10
2022-08-29T04:56:47.398Z,6.63
2022-08-29T04:59:18.354Z,6.28
2022-08-29T05:01:49.980Z,7.10
2022-08-29T05:04:20.223Z,6.20
2022-08-29T05:06:49.570Z,6.38
2022-08-29T05:09:18.921Z,5.82
2022-08-29T05:11:50.157Z,6.25
2022-08-29T05:14:19.631Z,5.60
2022-08-29T05:16:49.090Z,5.90
2022-08-29T05:19:18.818Z,5.83
2022-08-29T05:21:49.465Z,5.25
2022-08-29T05:24:19.030Z,5.57
2022-08-29T05:26:50.149Z,4.87
2022-08-29T05:29:21.170Z,5.10
2022-08-29T05:31:50.799Z,4.93
2022-08-29T05:34:34.330Z,6.28
2022-08-29T05:37:07.784Z,5.93
2022-08-29T05:39:37.843Z,6.43
2022-08-29T05:44:39.581Z,4.90
2022-08-29T05:47:12.362Z,4.93
2022-08-29T05:49:43.485Z,5.05
2022-08-29T05:52:15.907Z,4.95
2022-08-29T05:54:45.719Z,4.80
2022-08-29T05:57:19.453Z,4.70
2022-08-29T05:59:49.688Z,4.68
2022-08-29T06:02:21.114Z,4.72
2022-08-29T06:04:50.769Z,4.65
2022-08-29T06:07:21.368Z,5.05
2022-08-29T06:09:53.838Z,3.60
2022-08-29T06:12:27.990Z,4.43
2022-08-29T06:14:57.480Z,3.95
2022-08-29T06:17:28.262Z,3.97
2022-08-29T06:19:58.020Z,3.50
2022-08-29T06:22:27.390Z,3.42
2022-08-29T06:24:57.751Z,3.08
2022-08-29T06:27:30.146Z,2.65
2022-08-29T06:30:01.928Z,2.55
2022-08-29T06:32:32.097Z,2.30
2022-08-29T06:35:02.334Z,2.83
2022-08-29T06:37:31.616Z,3.03
2022-08-29T06:40:01.278Z,2.78
2022-08-29T06:42:32.148Z,2.38
2022-08-29T06:45:02.158Z,3.00
2022-08-29T06:47:31.713Z,3.25
2022-08-29T06:50:01.150Z,2.58
2022-08-29T06:52:30.912Z,2.55
2022-08-29T06:55:00.366Z,2.13
2022-08-29T07:00:01.913Z,2.15
2022-08-29T07:02:51.689Z,2.47
2022-08-29T07:05:23.394Z,2.13
2022-08-29T07:07:53.690Z,2.58
2022-08-29T07:12:54.290Z,2.70
2022-08-29T07:15:25.642Z,1.88
2022-08-29T07:17:59.740Z,2.58
2022-08-29T07:20:30.064Z,1.80
2022-08-29T07:22:59.497Z,2.03
2022-08-29T07:25:29.074Z,1.67
2022-08-29T07:28:00.904Z,2.00
2022-08-29T07:30:30.536Z,1.70
2022-08-29T07:33:00.737Z,1.40
2022-08-29T07:35:30.955Z,1.95
2022-08-29T07:38:02.810Z,1.45
2022-08-29T07:40:32.226Z,2.03
2022-08-29T07:43:05.138Z,1.40
2022-08-29T07:45:39.995Z,1.50
2022-08-29T07:48:10.212Z,1.27
2022-08-29T07:50:42.907Z,1.98
2022-08-29T07:53:12.597Z,1.23
2022-08-29T07:55:42.033Z,0.90
2022-08-29T07:58:12.981Z,1.08
2022-08-29T08:00:42.953Z,1.40
2022-08-29T08:03:14.584Z,1.15
2022-08-29T08:05:44.326Z,1.20
2022-08-29T08:08:14.974Z,1.47
2022-08-29T08:10:47.874Z,0.80
2022-08-29T08:13:22.938Z,1.15
2022-08-29T08:15:52.619Z,1.70
2022-08-29T08:18:22.440Z,1.13
2022-08-29T08:20:51.989Z,1.40
2022-08-29T08:23:22.078Z,1.20
2022-08-29T08:25:51.927Z,2.13
2022-08-29T08:28:22.829Z,1.13
2022-08-29T08:30:53.013Z,1.10
2022-08-29T08:33:22.681Z,1.15
2022-08-29T08:35:52.182Z,1.13
2022-08-29T08:38:23.333Z,1.08
2022-08-29T08:41:02.786Z,1.40
2022-08-29T08:43:48.211Z,1.50
2022-08-29T08:46:18.352Z,1.30
2022-08-29T08:48:51.620Z,1.00
2022-08-29T08:51:27.449Z,1.50
2022-08-29T08:54:00.841Z,0.90
2022-08-29T08:56:36.948Z,1.27
2022-08-29T08:59:16.521Z,1.05
2022-08-29T09:01:56.677Z,0.75
2022-08-29T09:04:48.463Z,0.85
2022-08-29T09:07:39.735Z,0.80
2022-08-29T09:10:20.328Z,1.00
2022-08-29T09:13:01.201Z,1.17
2022-08-29T09:15:36.034Z,1.17
2022-08-29T09:18:13.546Z,1.17
2022-08-29T09:20:43.919Z,1.30
2022-08-29T09:23:20.291Z,1.23
2022-08-29T09:25:50.522Z,1.15
2022-08-29T09:28:20.179Z,1.00
2022-08-29T09:31:21.342Z,1.00
2022-08-29T09:33:54.037Z,0.85
2022-08-29T09:36:39.866Z,1.38
2022-08-29T09:39:20.494Z,0.80
2022-08-29T09:41:52.005Z,1.25
2022-08-29T09:44:25.768Z,0.93
2022-08-29T09:47:14.911Z,1.15
2022-08-29T09:50:04.624Z,1.00
2022-08-29T09:52:34.572Z,1.55
2022-08-29T09:55:21.493Z,1.00
2022-08-29T09:58:02.429Z,1.27
2022-08-29T10:00:36.424Z,1.13
2022-08-29T10:03:10.457Z,1.30
2022-08-29T10:05:44.718Z,1.10
2022-08-29T10:08:30.650Z,1.38
2022-08-29T10:11:03.688Z,1.00
2022-08-29T10:13:39.870Z,1.48
2022-08-29T10:16:18.330Z,1.23
2022-08-29T10:18:52.110Z,1.35
2022-08-29T10:21:32.242Z,1.00
2022-08-29T10:24:43.117Z,1.47
2022-08-29T10:27:23.832Z,1.38
2022-08-29T10:30:03.656Z,1.40
2022-08-29T10:35:26.574Z,1.38
2022-08-29T10:37:59.572Z,1.23
2022-08-29T10:40:32.940Z,1.20
2022-08-29T10:43:18.385Z,1.13
2022-08-29T10:46:01.902Z,0.85
2022-08-29T10:48:37.787Z,1.17
2022-08-29T10:51:23.343Z,1.33
2022-08-29T10:53:59.113Z,1.38
2022-08-29T10:56:34.805Z,1.20
2022-08-29T10:59:12.582Z,1.45
2022-08-29T11:01:45.473Z,1.70
2022-08-29T11:04:20.212Z,0.95
2022-08-29T11:07:04.119Z,1.02
2022-08-29T11:09:47.526Z,0.90
2022-08-29T11:12:22.379Z,1.02
2022-08-29T11:14:58.560Z,0.95
2022-08-29T11:17:34.109Z,1.30
2022-08-29T11:20:11.762Z,1.40
2022-08-29T11:22:47.965Z,1.23
2022-08-29T11:25:20.422Z,0.77
2022-08-29T11:27:58.442Z,1.25
2022-08-29T11:30:41.801Z,0.90
2022-08-29T11:33:27.558Z,1.13
2022-08-29T11:36:25.739Z,0.80
2022-08-29T11:39:28.098Z,1.10
2022-08-29T11:42:00.437Z,1.60
2022-08-29T11:44:33.543Z,1.27
2022-08-29T11:47:06.094Z,0.90
2022-08-29T11:49:43.034Z,0.93
2022-08-29T11:52:27.769Z,1.60
2022-08-29T11:55:34.036Z,1.10
2022-08-29T11:58:11.690Z,1.27
2022-08-29T12:00:48.091Z,1.05
2022-08-29T12:03:59.748Z,0.70
2022-08-29T12:06:51.313Z,0.88
2022-08-29T12:09:47.984Z,0.82
2022-08-29T12:12:36.764Z,1.20
2022-08-29T12:15:42.297Z,1.33
2022-08-29T12:18:51.074Z,1.13
2022-08-29T12:21:46.114Z,1.10
2022-08-29T12:24:43.221Z,1.10
2022-08-29T12:27:52.245Z,0.90
2022-08-29T12:30:22.242Z,0.77
2022-08-29T12:33:04.246Z,0.80
2022-08-29T12:36:09.927Z,1.05
2022-08-29T12:38:50.940Z,0.85
2022-08-29T12:41:36.361Z,1.00
2022-08-29T12:44:14.682Z,1.15
2022-08-29T12:46:46.779Z,0.90
2022-08-29T12:49:23.705Z,0.98
2022-08-29T12:51:58.316Z,1.05
2022-08-29T12:54:34.345Z,2.33
2022-08-29T12:57:07.269Z,2.30
2022-08-29T12:59:37.183Z,1.42
2022-08-29T13:02:07.224Z,1.60
2022-08-29T13:04:39.221Z,1.60
2022-08-29T13:07:18.661Z,1.90
2022-08-29T13:09:53.604Z,2.00
2022-08-29T13:12:26.821Z,1.75
2022-08-29T13:14:59.664Z,3.15
2022-08-29T13:17:34.372Z,2.20
2022-08-29T13:20:48.812Z,1.98
2022-08-29T13:23:29.312Z,2.42
2022-08-29T13:26:02.581Z,2.00
2022-08-29T13:28:41.173Z,2.20
2022-08-29T13:31:36.423Z,1.95
2022-08-29T13:34:21.486Z,2.42
2022-08-29T13:36:59.549Z,1.92
2022-08-29T13:39:40.588Z,2.70
2022-08-29T13:42:23.187Z,3.25
2022-08-29T13:45:11.758Z,1.35
2022-08-29T13:47:47.397Z,1.10
2022-08-29T13:50:18.100Z,1.55
2022-08-29T13:52:47.662Z,1.05
2022-08-29T13:55:18.890Z,1.37
2022-08-29T13:57:52.246Z,0.90
2022-08-29T14:00:34.790Z,1.20
2022-08-29T14:03:09.608Z,1.00
2022-08-29T14:05:39.506Z,1.73
2022-08-29T14:08:11.691Z,0.85
2022-08-29T14:10:42.678Z,0.90
2022-08-29T14:13:12.978Z,0.90
2022-08-29T14:15:42.874Z,0.90
2022-08-29T14:18:12.997Z,0.90
2022-08-29T14:20:42.497Z,0.60
2022-08-29T14:23:11.967Z,0.87
2022-08-29T14:25:43.436Z,1.00
2022-08-29T14:28:16.006Z,1.10
2022-08-29T14:30:47.779Z,1.02
2022-08-29T14:33:23.767Z,1.15
2022-08-29T14:35:54.205Z,1.10
2022-08-29T14:38:23.922Z,0.98
2022-08-29T14:40:55.060Z,1.03
2022-08-29T14:43:25.277Z,1.00
2022-08-29T14:45:54.743Z,1.63
2022-08-29T14:48:24.240Z,1.20
2022-08-29T14:50:54.298Z,1.15
2022-08-29T14:53:23.888Z,1.02
2022-08-29T14:55:54.960Z,1.00
2022-08-29T14:58:24.885Z,1.25
2022-08-29T15:00:54.274Z,1.45
2022-08-29T15:03:25.661Z,1.30
2022-08-29T15:05:55.408Z,1.05
2022-08-29T15:08:24.932Z,1.40
2022-08-29T15:10:59.213Z,1.30
2022-08-29T15:13:29.087Z,1.30
2022-08-29T15:15:58.656Z,1.30
2022-08-29T15:19:07.824Z,0.90
2022-08-29T15:21:18.343Z,1.08
2022-08-29T15:23:49.258Z,1.40
2022-08-29T15:26:20.402Z,1.27
2022-08-29T15:28:49.701Z,1.23
2022-08-29T15:31:19.417Z,1.38
2022-08-29T15:36:18.646Z,1.30
2022-08-29T15:38:48.495Z,0.90
2022-08-29T15:41:18.156Z,1.30
2022-08-29T15:43:49.153Z,1.20
2022-08-29T15:46:18.851Z,1.05
2022-08-29T15:48:48.589Z,1.00
2022-08-29T15:51:18.101Z,1.02
2022-08-29T15:53:48.016Z,1.40
2022-08-29T15:56:17.366Z,0.95
2022-08-29T15:58:49.734Z,1.55
2022-08-29T16:01:20.294Z,0.93
2022-08-29T16:03:49.952Z,0.70
2022-08-29T16:06:19.438Z,1.17
2022-08-29T16:11:24.913Z,1.00
2022-08-29T16:14:15.721Z,0.90
2022-08-29T16:16:47.761Z,1.10
2022-08-29T16:19:18.990Z,1.15
2022-08-29T16:21:49.098Z,1.23
2022-08-29T16:24:19.078Z,0.90
2022-08-29T16:26:48.585Z,0.85
2022-08-29T16:29:26.605Z,1.20
2022-08-29T16:31:58.546Z,0.80
2022-08-29T16:34:28.515Z,1.23
2022-08-29T16:36:59.619Z,1.00
2022-08-29T16:41:59.494Z,0.70
2022-08-29T16:44:32.073Z,1.20
2022-08-29T16:47:02.466Z,0.82
2022-08-29T16:49:31.986Z,1.42
2022-08-29T16:52:01.784Z,0.95
2022-08-29T16:54:31.922Z,1.23
2022-08-29T16:57:01.734Z,1.20
2022-08-29T16:59:35.250Z,0.93
2022-08-29T17:02:07.465Z,1.00
2022-08-29T17:04:36.958Z,1.10
2022-08-29T17:07:06.582Z,1.10
2022-08-29T17:09:34.998Z,1.20
2022-08-29T17:12:03.608Z,0.90
2022-08-29T17:14:33.395Z,1.38
2022-08-29T17:17:03.533Z,1.63
2022-08-29T17:19:33.775Z,1.02
2022-08-29T17:22:03.337Z,1.23
2022-08-29T17:24:33.383Z,1.58
2022-08-29T17:27:03.046Z,1.55
2022-08-29T17:29:34.303Z,1.42
2022-08-29T17:32:06.403Z,1.38
2022-08-29T17:34:35.741Z,1.70
2022-08-29T17:37:05.852Z,1.65
2022-08-29T17:39:39.799Z,1.73
2022-08-29T17:42:10.301Z,1.50
2022-08-29T17:44:41.235Z,1.48
2022-08-29T17:47:11.350Z,1.77
2022-08-29T17:49:40.718Z,2.45
2022-08-29T17:52:10.750Z,1.63
2022-08-29T17:54:40.450Z,1.50
2022-08-29T17:57:09.784Z,1.45
2022-08-29T17:59:40.682Z,1.30
2022-08-29T18:02:11.235Z,1.73
2022-08-29T18:04:40.732Z,1.38
2022-08-29T18:07:11.273Z,1.60
2022-08-29T18:09:41.739Z,1.83
2022-08-29T18:12:11.561Z,1.42
2022-08-29T18:14:42.371Z,1.47
2022-08-29T18:17:12.358Z,1.45
2022-08-29T18:19:42.030Z,2.03
2022-08-29T18:22:11.851Z,2.10
2022-08-29T18:24:41.716Z,1.90
2022-08-29T18:27:11.166Z,1.88
2022-08-29T18:29:42.137Z,1.50
2022-08-29T18:32:12.112Z,1.60
2022-08-29T18:34:42.441Z,1.58
2022-08-29T18:37:13.970Z,1.65
2022-08-29T18:39:44.581Z,1.65
2022-08-29T18:42:30.808Z,2.53
2022-08-29T18:45:06.818Z,2.22
2022-08-29T18:47:36.293Z,1.50
2022-08-29T18:50:25.415Z,1.05
2022-08-29T18:52:57.385Z,2.00
2022-08-29T18:55:27.604Z,1.60
2022-08-29T18:57:57.585Z,2.38
2022-08-29T19:00:28.752Z,1.42
2022-08-29T19:03:00.092Z,1.90
2022-08-29T19:05:32.645Z,1.60
2022-08-29T19:08:02.725Z,1.77
2022-08-29T19:10:33.273Z,1.77
2022-08-29T19:13:03.856Z,1.63
2022-08-29T19:15:35.115Z,1.92
2022-08-29T19:18:12.526Z,1.75
2022-08-29T19:20:59.698Z,1.75
2022-08-29T19:23:29.529Z,1.33
2022-08-29T19:25:59.133Z,0.85
2022-08-29T19:28:29.553Z,1.90
2022-08-29T19:31:01.448Z,1.27
2022-08-29T19:33:31.003Z,1.30
2022-08-29T19:36:02.761Z,1.65
2022-08-29T19:38:32.261Z,1.23
2022-08-29T19:41:03.061Z,1.40
2022-08-29T19:43:34.846Z,1.67
2022-08-29T19:46:11.443Z,1.50
2022-08-29T19:48:43.923Z,1.63
2022-08-29T19:51:16.465Z,1.27
2022-08-29T19:53:46.446Z,1.70
2022-08-29T19:56:16.576Z,1.60
2022-08-29T19:58:46.104Z,2.47
2022-08-29T20:01:17.401Z,1.00
2022-08-29T20:03:47.988Z,1.33
2022-08-29T20:06:17.478Z,1.00
2022-08-29T20:08:48.390Z,1.52
2022-08-29T20:11:21.980Z,1.60
2022-08-29T20:13:52.914Z,1.55
2022-08-29T20:16:28.455Z,1.40
2022-08-29T20:18:58.429Z,1.45
2022-08-29T20:21:28.968Z,1.83
2022-08-29T20:23:58.623Z,1.48
2022-08-29T20:26:31.655Z,2.17
2022-08-29T20:29:03.668Z,1.42
2022-08-29T20:31:35.272Z,2.05
2022-08-29T20:34:05.770Z,1.77
2022-08-29T20:36:52.512Z,1.93
2022-08-29T20:39:24.279Z,1.38
2022-08-29T20:41:56.405Z,2.28
2022-08-29T20:44:32.932Z,1.55
2022-08-29T20:47:05.513Z,1.35
2022-08-29T20:49:36.426Z,1.27
2022-08-29T20:52:07.765Z,1.13
2022-08-29T20:54:38.529Z,1.23
2022-08-29T20:57:08.564Z,1.48
2022-08-29T20:59:43.171Z,1.73
2022-08-29T21:02:14.224Z,1.98
2022-08-29T21:05:01.078Z,1.50
2022-08-29T21:07:30.584Z,1.00
2022-08-29T21:10:02.053Z,1.13
2022-08-29T21:12:31.696Z,1.05
2022-08-29T21:15:01.765Z,1.52
2022-08-29T21:17:32.583Z,1.13
2022-08-29T21:20:02.723Z,1.40
2022-08-29T21:22:32.266Z,1.50
2022-08-29T21:25:01.776Z,1.65
2022-08-29T21:27:32.204Z,1.40
2022-08-29T21:30:01.508Z,1.10
2022-08-29T21:32:32.371Z,1.20
2022-08-29T21:35:02.425Z,1.40
2022-08-29T21:37:31.883Z,0.80
2022-08-29T21:40:01.301Z,1.60
2022-08-29T21:42:31.337Z,1.00
2022-08-29T21:45:00.799Z,1.00
2022-08-29T21:47:32.216Z,1.30
2022-08-29T21:50:02.346Z,1.02
2022-08-29T21:52:32.804Z,1.40
2022-08-29T21:55:02.245Z,1.20
2022-08-29T21:57:49.125Z,0.65
2022-08-29T22:00:20.133Z,1.00
2022-08-29T22:02:51.831Z,1.27
2022-08-29T22:05:22.365Z,1.20
2022-08-29T22:07:52.345Z,0.90
2022-08-29T22:10:24.466Z,1.47
2022-08-29T22:12:54.570Z,1.20
2022-08-29T22:15:41.315Z,1.05
2022-08-29T22:18:15.113Z,0.38
2022-08-29T22:20:46.868Z,0.43
2022-08-29T22:23:20.072Z,0.70
2022-08-29T22:25:49.735Z,0.88
2022-08-29T22:28:19.711Z,0.40
2022-08-29T22:30:49.078Z,0.50
2022-08-29T22:33:20.169Z,0.80
2022-08-29T22:35:53.223Z,0.98
2022-08-29T22:38:22.709Z,1.20
2022-08-29T22:40:52.170Z,0.63
2022-08-29T22:43:22.126Z,0.63
2022-08-29T22:45:53.206Z,0.80
2022-08-29T22:48:24.679Z,0.52
2022-08-29T22:50:58.407Z,0.98
2022-08-29T22:53:28.524Z,0.93
2022-08-29T22:55:58.049Z,0.88
2022-08-29T22:58:27.415Z,0.60
2022-08-29T23:00:57.698Z,1.00
2022-08-29T23:03:28.647Z,1.25
2022-08-29T23:05:59.278Z,0.68
2022-08-29T23:08:28.765Z,1.17
2022-08-29T23:10:58.163Z,0.93
2022-08-29T23:13:28.290Z,0.52
2022-08-29T23:16:00.532Z,0.50
2022-08-29T23:18:32.050Z,0.47
2022-08-29T23:21:01.569Z,1.05
2022-08-29T23:23:31.535Z,0.90
2022-08-29T23:26:00.949Z,0.60
2022-08-29T23:28:30.265Z,0.60
2022-08-29T23:31:00.751Z,0.85
2022-08-29T23:33:31.841Z,1.25
2022-08-29T23:36:01.969Z,0.50
2022-08-29T23:38:31.422Z,1.45
2022-08-29T23:41:01.310Z,0.75
2022-08-29T23:43:35.732Z,0.60
2022-08-29T23:46:07.670Z,0.55
2022-08-29T23:48:39.476Z,0.40
2022-08-29T23:51:10.221Z,0.50
2022-08-29T23:53:40.003Z,0.70
2022-08-29T23:56:11.257Z,0.43
2022-08-29T23:58:41.350Z,0.50
